Time;durP1;ratioP1;P1;durP2;ratioP2;P2;SDS_P1;SDS_P2;PMS_P1;PMS_P2;Temp;Humidity;BMP_temperature;BMP_pressure;BME280_temperature;BME280_humidity;BME280_pressure;Samples;Min_cycle;Max_cycle;Signal;HPM_P1;HPM_P2
2022/06/02 00:01:56;;;;;;;23.15;13.02;;;;;;;8.88;88.59;101969.13;4968612;28;20484;-78
2022/06/02 00:04:38;;;;;;;26.55;13.43;;;;;;;8.84;88.62;101970.88;4976203;28;20129;-78
2022/06/02 00:07:09;;;;;;;22.20;12.80;;;;;;;8.82;89.32;101970.00;4969978;28;20029;-78
2022/06/02 00:09:40;;;;;;;20.70;12.38;;;;;;;8.76;89.07;101975.16;4975996;28;20435;-78
2022/06/02 00:12:13;;;;;;;24.05;13.50;;;;;;;8.73;89.25;101980.34;4964309;28;20038;-78
2022/06/02 00:15:19;;;;;;;23.88;13.90;;;;;;;8.69;89.22;101982.03;4971473;28;20030;-78
2022/06/02 00:18:04;;;;;;;25.58;13.73;;;;;;;8.66;89.13;101991.53;4980628;28;20026;-78
2022/06/02 00:20:40;;;;;;;24.05;13.38;;;;;;;8.59;89.67;101977.72;4968664;28;20034;-78
2022/06/02 00:23:18;;;;;;;25.15;13.82;;;;;;;8.56;89.89;101979.41;4970496;28;20023;-79
2022/06/02 00:25:46;;;;;;;24.33;13.15;;;;;;;8.55;89.90;101982.84;4970395;28;20038;-79
2022/06/02 00:28:23;;;;;;;25.08;14.35;;;;;;;8.50;90.12;101977.69;4966671;28;20691;-78
2022/06/02 00:31:29;;;;;;;26.70;14.52;;;;;;;8.49;89.44;101978.53;4971063;28;20035;-78
2022/06/02 00:34:22;;;;;;;25.25;14.15;;;;;;;8.45;89.87;101981.97;4976340;28;20269;-78
2022/06/02 00:37:08;;;;;;;26.45;14.40;;;;;;;8.44;90.11;101989.72;4971903;28;20026;-78
2022/06/02 00:39:34;;;;;;;25.27;14.30;;;;;;;8.41;90.37;101987.97;4980378;28;20027;-79
2022/06/02 00:42:24;;;;;;;26.38;14.70;;;;;;;8.42;90.29;101991.44;4971070;28;20670;-78
2022/06/02 00:44:57;;;;;;;29.23;15.10;;;;;;;8.41;90.23;101992.28;4970021;28;20045;-78
2022/06/02 00:47:31;;;;;;;26.27;14.98;;;;;;;8.37;90.34;101990.56;4968505;28;20037;-78
2022/06/02 00:50:07;;;;;;;26.85;15.15;;;;;;;8.34;90.36;101996.56;4969673;28;20058;-78
2022/06/02 00:52:50;;;;;;;28.60;15.75;;;;;;;8.30;90.60;101998.28;4973647;28;20022;-78
2022/06/02 00:58:48;;;;;;;30.10;15.88;;;;;;;8.23;90.09;102001.66;4968744;28;20189;-78
2022/06/02 01:01:18;;;;;;;28.27;15.15;;;;;;;8.18;90.72;101999.91;4962209;28;20114;-78
2022/06/02 01:03:47;;;;;;;26.58;15.32;;;;;;;8.14;90.84;101993.00;4967865;28;20022;-78
2022/06/02 01:06:50;;;;;;;29.35;15.98;;;;;;;8.15;90.59;101987.84;4981024;28;20029;-78
2022/06/02 01:09:42;;;;;;;27.55;15.02;;;;;;;8.12;90.85;101992.97;4966308;28;20129;-78
2022/06/02 01:12:32;;;;;;;30.10;16.23;;;;;;;8.13;91.14;101986.09;4965477;28;20053;-78
2022/06/02 01:15:15;;;;;;;27.48;14.68;;;;;;;8.11;91.38;101990.41;4971949;28;20033;-78
2022/06/02 01:18:11;;;;;;;28.40;15.88;;;;;;;8.11;91.33;101993.00;4968417;28;20441;-78
2022/06/02 01:20:45;;;;;;;28.50;15.43;;;;;;;8.09;91.59;101984.38;4975814;28;20033;-78
2022/06/02 01:23:31;;;;;;;27.60;15.02;;;;;;;8.06;91.28;101986.91;4975020;28;20030;-78
2022/06/02 01:26:12;;;;;;;36.63;17.70;;;;;;;8.04;91.87;101991.25;4970673;28;20027;-78
2022/06/02 01:28:48;;;;;;;34.17;17.98;;;;;;;8.02;91.68;101990.34;4967948;28;20064;-78
2022/06/02 01:31:43;;;;;;;31.23;16.05;;;;;;;8.00;91.58;101989.47;4970347;28;20034;-78
2022/06/02 01:34:30;;;;;;;32.15;16.27;;;;;;;8.00;91.67;101992.94;5001949;28;20519;-78
2022/06/02 01:37:26;;;;;;;32.83;16.27;;;;;;;7.98;91.87;101991.22;4967957;28;20027;-78
2022/06/02 01:40:30;;;;;;;33.20;16.90;;;;;;;7.97;91.89;101986.91;4971243;28;20097;-78
2022/06/02 01:43:08;;;;;;;29.65;16.42;;;;;;;7.94;91.84;101993.75;4964498;28;20034;-78
2022/06/02 01:46:14;;;;;;;32.20;16.40;;;;;;;7.87;91.52;101992.00;4967895;28;20050;-78
2022/06/02 01:48:55;;;;;;;30.73;16.58;;;;;;;7.89;91.97;101992.88;4968027;28;20052;-78
2022/06/02 01:51:27;;;;;;;35.97;17.73;;;;;;;7.85;92.35;101996.28;4977944;28;20035;-78
2022/06/02 01:53:58;;;;;;;34.92;17.42;;;;;;;7.86;92.22;101998.00;4969228;28;20107;-78
2022/06/02 01:56:37;;;;;;;37.55;18.30;;;;;;;7.84;92.38;101992.00;4972084;28;20031;-78
2022/06/02 01:59:03;;;;;;;34.55;17.27;;;;;;;7.83;92.51;101987.69;4971628;28;20421;-78
2022/06/02 02:01:51;;;;;;;32.70;17.00;;;;;;;7.85;92.16;101990.25;4963427;28;20105;-78
2022/06/02 02:04:19;;;;;;;34.42;17.55;;;;;;;7.80;92.26;101986.78;4955816;28;20721;-78
2022/06/02 02:07:00;;;;;;;31.75;17.25;;;;;;;7.76;92.31;101980.75;4962415;28;20034;-78
2022/06/02 02:09:54;;;;;;;35.90;18.17;;;;;;;7.72;92.49;101981.56;4971829;28;20121;-78
2022/06/02 02:13:02;;;;;;;34.20;17.65;;;;;;;7.69;92.16;101986.75;4987835;28;20035;-78
2022/06/02 02:15:42;;;;;;;33.90;17.30;;;;;;;7.65;92.22;101982.38;4973293;28;20053;-78
2022/06/02 02:18:27;;;;;;;30.48;16.00;;;;;;;7.62;92.25;101989.25;4971992;28;20105;-78
2022/06/02 02:21:07;;;;;;;32.45;16.90;;;;;;;7.59;92.39;101996.97;4973327;28;20060;-78
2022/06/02 02:23:32;;;;;;;32.13;16.85;;;;;;;7.56;92.55;101996.97;4958916;28;20512;-78
2022/06/02 02:26:13;;;;;;;31.50;16.73;;;;;;;7.55;93.00;101993.53;4977646;28;20027;-78
2022/06/02 02:28:52;;;;;;;32.20;16.25;;;;;;;7.54;92.97;101990.06;4971460;28;20143;-78
2022/06/02 02:31:33;;;;;;;30.13;16.27;;;;;;;7.55;92.77;101998.69;4972135;28;20038;-78
2022/06/02 02:34:15;;;;;;;32.45;17.70;;;;;;;7.54;92.91;102005.56;4976399;28;20339;-78
2022/06/02 02:37:21;;;;;;;35.58;17.65;;;;;;;7.53;92.33;102000.38;4975142;28;20544;-78
2022/06/02 02:40:03;;;;;;;35.40;16.70;;;;;;;7.54;92.72;102004.69;4973145;28;20523;-78
2022/06/02 02:42:41;;;;;;;35.42;17.60;;;;;;;7.51;92.96;102005.50;4972300;28;20031;-78
2022/06/02 02:45:41;;;;;;;32.92;17.02;;;;;;;7.53;92.88;102002.94;4977530;28;20448;-78
2022/06/02 02:48:21;;;;;;;33.03;16.95;;;;;;;7.50;92.67;102013.28;4972305;28;20402;-78
2022/06/02 02:51:17;;;;;;;31.92;16.35;;;;;;;7.46;92.52;102004.63;4972312;28;20030;-78
2022/06/02 02:53:57;;;;;;;32.38;16.15;;;;;;;7.44;92.81;102010.59;4964714;28;20173;-78
2022/06/02 02:56:32;;;;;;;31.50;16.33;;;;;;;7.41;92.67;102018.34;4967852;28;20118;-78
2022/06/02 02:59:22;;;;;;;31.45;16.88;;;;;;;7.39;92.60;102020.91;4983990;28;20026;-78
2022/06/02 03:02:02;;;;;;;29.77;14.55;;;;;;;7.36;92.92;102023.47;4970653;28;20277;-78
2022/06/02 03:04:59;;;;;;;30.92;16.88;;;;;;;7.35;93.40;102016.59;4974401;28;20100;-78
2022/06/02 03:07:25;;;;;;;29.73;15.15;;;;;;;7.34;93.16;102019.13;4980926;28;20089;-78
2022/06/02 03:10:04;;;;;;;31.27;15.27;;;;;;;7.32;93.16;102023.41;4961556;28;20045;-78
2022/06/02 03:12:51;;;;;;;27.23;14.52;;;;;;;7.29;92.98;102023.41;4972533;28;20118;-78
2022/06/02 03:15:32;;;;;;;28.85;15.15;;;;;;;7.25;92.87;102027.66;4971023;28;20032;-78
2022/06/02 03:18:24;;;;;;;28.52;15.38;;;;;;;7.21;92.96;102032.78;4970720;28;20022;-78
2022/06/02 03:21:14;;;;;;;29.23;15.18;;;;;;;7.19;92.78;102037.06;4985497;28;20034;-78
2022/06/02 03:23:49;;;;;;;26.33;14.07;;;;;;;7.15;92.62;102041.31;4970979;28;20058;-78
2022/06/02 03:26:26;;;;;;;;;;;;;;;7.18;90.78;102043.06;4973145;28;20486;-78
2022/06/02 03:29:13;;;;;;;28.40;13.73;;;;;;;7.13;92.34;102043.88;4973759;28;19961;-78
2022/06/02 03:31:51;;;;;;;27.55;13.90;;;;;;;7.10;92.52;102043.84;4968525;28;20105;-78
2022/06/02 03:34:32;;;;;;;28.48;14.93;;;;;;;7.10;92.53;102049.00;4963179;28;20358;-78
2022/06/02 03:37:15;;;;;;;27.98;14.98;;;;;;;7.11;93.29;102058.47;4970603;28;20033;-78
2022/06/02 03:39:52;;;;;;;29.08;14.27;;;;;;;7.09;92.74;102055.03;4971922;28;20032;-78
2022/06/02 03:42:23;;;;;;;25.55;14.27;;;;;;;7.05;92.82;102058.41;4972650;28;20065;-78
2022/06/02 03:45:00;;;;;;;26.35;14.50;;;;;;;7.01;92.60;102059.25;4971910;28;20114;-78
2022/06/02 03:47:54;;;;;;;27.90;13.68;;;;;;;6.98;92.66;102059.19;4971791;28;20027;-78
2022/06/02 03:50:28;;;;;;;28.43;14.77;;;;;;;6.97;92.54;102070.34;4967185;28;20053;-78
2022/06/02 03:53:12;;;;;;;28.25;14.60;;;;;;;6.94;92.58;102067.75;4961702;28;20030;-78
2022/06/02 03:56:05;;;;;;;25.48;13.50;;;;;;;6.91;93.01;102059.97;4975044;28;20070;-78
2022/06/02 03:58:55;;;;;;;25.13;13.85;;;;;;;6.90;93.04;102063.41;4971773;28;20023;-78
2022/06/02 04:01:26;;;;;;;27.38;14.32;;;;;;;6.91;93.16;102066.84;4974606;28;21237;-78
2022/06/02 04:04:17;;;;;;;25.60;14.73;;;;;;;6.90;93.58;102065.97;4963599;28;20089;-78
2022/06/02 04:07:22;;;;;;;28.38;14.50;;;;;;;6.93;93.59;102073.75;4968375;28;20038;-78
2022/06/02 04:10:06;;;;;;;25.25;13.93;;;;;;;6.96;93.46;102070.34;4977696;28;20030;-78
2022/06/02 04:15:40;;;;;;;25.30;13.50;;;;;;;7.00;93.58;102075.53;4971829;28;20082;-78
2022/06/02 04:18:33;;;;;;;25.80;14.30;;;;;;;7.02;93.84;102071.28;4969783;28;20027;-78
2022/06/02 04:21:31;;;;;;;25.33;13.93;;;;;;;7.05;94.16;102076.44;4970475;28;20027;-78
2022/06/02 04:24:20;;;;;;;28.52;14.27;;;;;;;7.10;93.98;102077.34;4972035;28;20109;-78
2022/06/02 04:27:09;;;;;;;28.48;14.48;;;;;;;7.14;94.44;102081.72;4971145;28;20035;-78
2022/06/02 04:29:43;;;;;;;27.65;13.88;;;;;;;7.20;94.31;102085.19;4968854;28;20109;-78
2022/06/02 04:32:31;;;;;;;27.55;14.68;;;;;;;7.24;94.60;102092.09;4970045;28;20114;-78
2022/06/02 04:35:23;;;;;;;28.17;14.30;;;;;;;7.30;94.57;102087.88;4964089;28;20061;-78
2022/06/02 04:38:03;;;;;;;30.38;15.18;;;;;;;7.35;95.02;102098.25;4970002;28;20090;-78
2022/06/02 04:40:50;;;;;;;30.25;15.27;;;;;;;7.41;94.98;102099.16;4970818;28;20114;-78
2022/06/02 04:43:27;;;;;;;32.60;16.20;;;;;;;7.45;95.07;102097.47;4969857;28;20446;-79
2022/06/02 04:46:14;;;;;;;34.90;16.40;;;;;;;7.48;95.09;102093.22;4970840;28;20026;-79
2022/06/02 04:48:55;;;;;;;33.97;17.25;;;;;;;7.53;95.20;102103.56;4955910;28;20038;-78
2022/06/02 04:51:46;;;;;;;33.83;16.77;;;;;;;7.56;95.29;102105.31;4995868;28;20078;-78
2022/06/02 04:54:34;;;;;;;36.05;17.15;;;;;;;7.61;95.60;102094.19;4968914;28;20113;-78
2022/06/02 04:57:17;;;;;;;33.03;16.73;;;;;;;7.69;95.44;102104.56;4963285;28;20038;-78
2022/06/02 05:00:07;;;;;;;31.27;16.15;;;;;;;7.75;96.01;102102.91;4961456;28;20078;-79
2022/06/02 05:03:10;;;;;;;36.30;17.80;;;;;;;7.82;96.15;102108.97;4964615;28;20026;-79
2022/06/02 05:05:40;;;;;;;37.10;17.40;;;;;;;7.87;96.23;102108.16;4968646;28;20049;-78
2022/06/02 05:08:33;;;;;;;33.90;17.23;;;;;;;7.94;95.91;102104.78;4968828;28;20498;-78
2022/06/02 05:11:17;;;;;;;42.22;19.17;;;;;;;8.05;96.41;102109.16;4970091;28;20069;-78
2022/06/02 05:13:55;;;;;;;39.00;19.20;;;;;;;8.14;96.86;102122.13;4976565;28;20038;-78
2022/06/02 05:16:43;;;;;;;41.78;19.15;;;;;;;8.24;96.88;102111.00;4965104;28;20112;-78
2022/06/02 05:19:27;;;;;;;42.53;20.70;;;;;;;8.35;97.05;102119.72;4969161;28;20058;-79
2022/06/02 05:21:59;;;;;;;39.22;20.20;;;;;;;8.42;95.94;102107.69;4971031;28;20045;-79
2022/06/02 05:24:52;;;;;;;41.70;19.40;;;;;;;8.47;95.30;102114.59;4967998;28;20037;-79
2022/06/02 05:27:30;;;;;;;41.72;19.98;;;;;;;8.57;96.00;102113.81;4956571;28;20035;-79
2022/06/02 05:30:13;;;;;;;45.35;21.23;;;;;;;8.68;96.64;102121.59;4963748;28;20362;-79
2022/06/02 05:33:04;;;;;;;41.22;20.33;;;;;;;8.79;96.93;102117.38;4965598;28;20046;-79
2022/06/02 05:36:08;;;;;;;44.67;20.15;;;;;;;8.86;96.24;102119.13;4968548;28;20034;-79
2022/06/02 05:38:59;;;;;;;43.90;21.55;;;;;;;8.94;96.10;102124.31;4989611;28;20045;-84
2022/06/02 05:42:01;;;;;;;42.60;21.35;;;;;;;9.00;95.98;102122.63;4961890;28;20061;-79
2022/06/02 05:44:45;;;;;;;42.50;21.95;;;;;;;9.09;95.44;102122.63;4966765;28;20520;-79
2022/06/02 05:47:42;;;;;;;48.72;22.63;;;;;;;9.17;96.13;102117.47;4973769;28;20036;-79
2022/06/02 05:50:18;;;;;;;45.67;21.25;;;;;;;9.31;95.76;102125.25;4973158;28;20038;-79
2022/06/02 05:53:09;;;;;;;47.80;22.10;;;;;;;9.37;95.03;102123.56;4973605;28;20163;-79
2022/06/02 05:56:03;;;;;;;46.35;22.33;;;;;;;9.49;94.82;102128.75;4968086;28;20033;-79
2022/06/02 05:58:43;;;;;;;50.40;23.53;;;;;;;9.66;95.97;102121.00;4972610;28;20034;-79
2022/06/02 06:01:14;;;;;;;48.55;22.65;;;;;;;9.81;95.72;102125.34;4967679;28;20046;-79
2022/06/02 06:04:06;;;;;;;49.20;24.48;;;;;;;9.94;95.45;102129.63;4980586;28;20030;-79
2022/06/02 06:07:11;;;;;;;45.60;22.50;;;;;;;10.08;95.03;102127.91;4963131;28;20046;-79
2022/06/02 06:10:01;;;;;;;47.45;22.85;;;;;;;10.21;95.08;102121.00;4963428;28;20123;-79
2022/06/02 06:12:48;;;;;;;46.90;22.25;;;;;;;10.41;96.49;102131.34;4970101;28;20383;-79
2022/06/02 06:15:28;;;;;;;46.60;22.75;;;;;;;10.58;96.65;102132.13;4981173;28;20402;-79
2022/06/02 06:18:22;;;;;;;43.33;22.08;;;;;;;10.73;94.11;102134.69;4984346;28;20028;-79
2022/06/02 06:21:05;;;;;;;42.55;22.63;;;;;;;11.02;95.11;102143.22;4973147;28;20118;-80
2022/06/02 06:23:41;;;;;;;43.60;22.35;;;;;;;11.34;94.31;102140.44;4967079;28;20031;-80
2022/06/02 06:26:12;;;;;;;44.70;23.58;;;;;;;11.46;93.74;102142.94;4972354;28;20464;-80
2022/06/02 06:29:00;;;;;;;44.03;21.95;;;;;;;11.54;91.95;102157.63;4972806;28;20039;-80
2022/06/02 06:31:40;;;;;;;39.50;21.30;;;;;;;11.58;91.29;102155.00;4974619;28;20029;-80
2022/06/02 06:34:33;;;;;;;38.33;19.83;;;;;;;11.62;91.01;102156.69;4972603;28;20027;-80
2022/06/02 06:37:25;;;;;;;35.53;19.75;;;;;;;11.69;90.25;102154.91;4971894;28;20035;-80
2022/06/02 06:40:20;;;;;;;34.30;19.40;;;;;;;11.75;91.46;102160.09;4973044;28;20022;-80
2022/06/02 06:43:10;;;;;;;38.03;20.83;;;;;;;11.83;90.84;102166.97;4956357;28;20521;-81
2022/06/02 06:45:43;;;;;;;33.63;19.13;;;;;;;11.96;90.27;102161.66;4972379;28;20131;-81
2022/06/02 06:48:23;;;;;;;37.15;20.02;;;;;;;12.08;90.71;102158.97;4974611;28;20114;-81
2022/06/02 06:51:07;;;;;;;37.88;20.40;;;;;;;12.16;89.32;102164.97;4972636;28;20122;-81
2022/06/02 06:53:48;;;;;;;36.83;19.95;;;;;;;12.26;87.07;102161.41;4958705;28;20055;-81
2022/06/02 06:56:21;;;;;;;35.72;19.35;;;;;;;12.40;88.43;102180.34;4971015;28;20038;-81
2022/06/02 06:59:23;;;;;;;31.92;19.00;;;;;;;12.57;88.94;102170.63;4975227;28;20019;-81
2022/06/02 07:02:15;;;;;;;30.17;18.02;;;;;;;12.80;87.56;102170.38;4982665;28;20122;-81
2022/06/02 07:04:56;;;;;;;33.45;18.15;;;;;;;13.00;87.42;102175.34;4964021;28;20035;-81
2022/06/02 07:07:34;;;;;;;27.88;16.85;;;;;;;13.23;86.55;102175.94;4971729;28;20042;-81
2022/06/02 07:10:10;;;;;;;24.48;16.60;;;;;;;13.45;83.06;102185.16;4978770;28;20037;-81
2022/06/02 07:12:51;;;;;;;28.27;16.85;;;;;;;13.67;84.23;102184.84;4979354;28;20172;-81
2022/06/02 07:15:41;;;;;;;29.70;17.75;;;;;;;13.91;84.30;102196.66;4962489;28;20027;-81
2022/06/02 07:18:26;;;;;;;21.52;14.27;;;;;;;13.91;79.79;102201.88;4969803;28;20035;-81
2022/06/02 07:21:14;;;;;;;21.83;14.38;;;;;;;13.91;80.82;102199.28;4974802;28;20031;-82
2022/06/02 07:23:45;;;;;;;19.10;12.75;;;;;;;14.11;80.47;102203.28;4971218;28;20045;-81
2022/06/02 07:26:41;;;;;;;21.73;14.55;;;;;;;14.24;80.97;102198.72;4972521;28;20031;-81
2022/06/02 07:29:44;;;;;;;21.55;14.15;;;;;;;14.23;81.11;102202.22;4971799;28;20031;-80
2022/06/02 07:32:27;;;;;;;23.63;15.63;;;;;;;14.21;79.20;102207.44;4974627;28;20035;-80
2022/06/02 07:35:31;;;;;;;24.70;15.85;;;;;;;14.55;81.83;102206.88;4983123;28;20494;-82
2022/06/02 07:37:57;;;;;;;21.65;13.93;;;;;;;15.68;75.06;102208.94;4967308;28;20526;-79
2022/06/02 07:40:44;;;;;;;21.73;13.80;;;;;;;16.35;70.76;102204.66;4983732;28;20054;-80
2022/06/02 07:43:22;;;;;;;20.88;13.45;;;;;;;17.34;70.46;102204.53;4970396;28;20296;-80
2022/06/02 07:46:09;;;;;;;18.77;13.02;;;;;;;18.99;68.41;102210.41;4962711;28;20065;-80
2022/06/02 07:48:51;;;;;;;18.92;12.68;;;;;;;20.15;65.62;102198.81;4977568;28;20419;-81
2022/06/02 07:51:23;;;;;;;15.77;11.88;;;;;;;21.08;57.64;102193.00;4975998;28;20030;-81
2022/06/02 07:54:03;;;;;;;15.82;11.77;;;;;;;22.03;61.74;102198.97;4974058;28;20462;-81
2022/06/02 07:56:56;;;;;;;14.45;11.57;;;;;;;22.23;55.78;102200.63;4967735;28;20518;-82
2022/06/02 07:59:57;;;;;;;14.15;11.05;;;;;;;22.39;52.01;102201.53;4980287;28;20047;-82
2022/06/02 08:02:32;;;;;;;13.60;10.30;;;;;;;21.55;53.56;102198.69;4962551;28;20038;-82
2022/06/02 08:05:13;;;;;;;13.40;10.73;;;;;;;20.49;55.59;102197.34;4958820;28;20187;-81
2022/06/02 08:07:59;;;;;;;13.77;10.15;;;;;;;19.83;58.46;102198.38;4957180;28;20038;-81
2022/06/02 08:10:39;;;;;;;12.57;9.82;;;;;;;19.35;57.02;102198.53;4971519;28;20046;-81
2022/06/02 08:13:22;;;;;;;14.05;9.15;;;;;;;19.57;56.18;102199.44;4969826;28;20030;-81
2022/06/02 08:15:58;;;;;;;11.52;8.27;;;;;;;19.37;56.18;102201.97;4978589;28;20026;-81
2022/06/02 08:18:40;;;;;;;11.77;9.75;;;;;;;19.32;58.37;102199.50;4974406;28;20039;-80
2022/06/02 08:21:30;;;;;;;13.02;9.90;;;;;;;18.67;56.83;102203.72;4969744;28;20027;-80
2022/06/02 08:24:13;;;;;;;12.30;9.88;;;;;;;18.14;59.48;102202.00;4970981;28;20061;-80
2022/06/02 08:26:49;;;;;;;14.00;10.70;;;;;;;17.88;59.14;102201.16;4971408;28;20038;-80
2022/06/02 08:29:48;;;;;;;15.65;10.40;;;;;;;17.63;60.86;102198.41;4970968;28;20138;-80
2022/06/02 08:32:20;;;;;;;14.48;10.40;;;;;;;17.25;60.97;102205.69;4970617;28;20033;-79
2022/06/02 08:35:04;;;;;;;13.93;10.63;;;;;;;17.37;59.66;102210.53;4969077;28;20457;-80
2022/06/02 08:37:55;;;;;;;15.45;10.95;;;;;;;17.30;61.97;102211.63;4976629;28;20030;-80
2022/06/02 08:40:31;;;;;;;12.85;10.25;;;;;;;17.53;63.27;102194.34;4970890;28;20041;-80
2022/06/02 08:43:28;;;;;;;15.75;10.35;;;;;;;17.78;62.23;102200.56;4969751;28;20027;-80
2022/06/02 08:46:36;;;;;;;14.05;9.48;;;;;;;18.07;63.28;102205.72;4970481;28;20030;-80
2022/06/02 08:49:27;;;;;;;13.77;10.50;;;;;;;17.85;60.57;102209.09;4970559;28;20033;-79
2022/06/02 08:52:30;;;;;;;12.27;9.75;;;;;;;17.56;61.70;102212.59;4977941;28;20049;-80
2022/06/02 08:55:32;;;;;;;13.15;10.13;;;;;;;17.28;60.80;102215.19;4969501;28;20034;-80
2022/06/02 08:58:07;;;;;;;13.02;10.18;;;;;;;16.92;61.53;102223.19;4968116;28;20023;-79
2022/06/02 09:00:44;;;;;;;15.27;10.77;;;;;;;16.99;61.19;102216.03;4967989;28;20101;-79
2022/06/02 09:03:36;;;;;;;13.73;11.05;;;;;;;17.40;62.69;102220.06;4970435;28;20660;-79
2022/06/02 09:06:34;;;;;;;13.98;10.32;;;;;;;17.31;59.83;102218.59;4973788;28;20069;-80
2022/06/02 09:09:25;;;;;;;14.38;10.52;;;;;;;17.28;59.54;102220.44;4973422;28;20038;-79
2022/06/02 09:12:03;;;;;;;13.48;10.60;;;;;;;17.31;59.03;102226.47;4968643;28;20030;-79
2022/06/02 09:14:56;;;;;;;13.57;10.15;;;;;;;17.21;58.99;102216.28;4969412;28;20031;-79
2022/06/02 09:17:40;;;;;;;12.65;9.80;;;;;;;17.13;61.74;102223.50;4970976;28;20035;-79
2022/06/02 09:20:33;;;;;;;13.45;9.95;;;;;;;17.25;63.10;102217.91;4967014;28;20520;-80
2022/06/02 09:23:26;;;;;;;14.45;10.70;;;;;;;17.19;59.25;102211.09;4978753;28;20146;-79
2022/06/02 09:26:02;;;;;;;14.40;9.80;;;;;;;16.96;62.00;102205.66;4973213;28;20413;-79
2022/06/02 09:28:46;;;;;;;15.85;10.07;;;;;;;16.72;61.71;102216.81;4980749;28;20038;-79
2022/06/02 09:31:49;;;;;;;13.63;9.95;;;;;;;16.59;58.64;102213.63;4968901;28;20393;-79
2022/06/02 09:34:40;;;;;;;15.90;10.00;;;;;;;17.18;56.71;102212.00;4958536;28;20023;-79
2022/06/02 09:37:17;;;;;;;12.45;9.07;;;;;;;17.84;60.52;102210.84;4968157;28;20027;-80
2022/06/02 09:40:37;;;;;;;13.63;9.30;;;;;;;18.48;59.59;102209.59;4969451;28;21327;-80
2022/06/02 09:43:18;;;;;;;10.95;9.23;;;;;;;19.10;54.41;102210.91;4977469;28;20125;-80
2022/06/02 09:46:08;;;;;;;12.77;9.70;;;;;;;19.51;52.60;102199.69;4961473;28;20042;-80
2022/06/02 09:49:00;;;;;;;12.82;9.30;;;;;;;19.92;53.24;102195.41;4956686;28;20049;-80
2022/06/02 09:51:49;;;;;;;13.23;9.48;;;;;;;20.22;51.91;102197.66;4955927;28;20059;-80
2022/06/02 09:54:17;;;;;;;15.45;11.65;;;;;;;19.81;46.90;102196.72;4959872;28;20049;-80
2022/06/02 10:00:11;;;;;;;16.55;12.20;;;;;;;19.06;51.49;102198.75;4972874;28;20405;-79
2022/06/02 10:02:56;;;;;;;15.63;11.55;;;;;;;19.25;54.35;102202.41;4977788;28;20555;-79
2022/06/02 10:05:29;;;;;;;;;;;;;;;19.54;53.71;102196.91;4971029;28;20089;-80
2022/06/02 10:07:57;;;;;;;16.35;11.70;;;;;;;19.75;51.36;102196.97;4978279;28;19925;-80
2022/06/02 10:10:39;;;;;;;16.35;11.90;;;;;;;20.18;49.23;102194.31;4965269;28;20490;-80
2022/06/02 10:13:29;;;;;;;17.30;12.85;;;;;;;20.13;49.03;102197.09;4963936;28;20031;-80
2022/06/02 10:16:15;;;;;;;15.52;12.05;;;;;;;19.57;51.85;102194.19;4956709;28;20066;-79
2022/06/02 10:19:20;;;;;;;15.90;12.10;;;;;;;19.16;53.37;102201.00;4968584;28;20517;-80
2022/06/02 10:21:48;;;;;;;14.77;11.13;;;;;;;18.95;51.34;102196.53;4950506;28;20437;-80
2022/06/02 10:24:21;;;;;;;14.82;11.38;;;;;;;18.58;52.21;102197.00;4973095;28;20029;-80
2022/06/02 10:27:23;;;;;;;14.52;11.43;;;;;;;18.31;54.66;102201.41;4963854;28;20038;-80
2022/06/02 10:30:06;;;;;;;14.30;11.20;;;;;;;18.33;55.19;102201.38;4977161;28;20493;-80
2022/06/02 10:33:00;;;;;;;14.40;11.25;;;;;;;18.59;53.16;102196.09;4975499;28;20102;-80
2022/06/02 10:35:46;;;;;;;16.17;12.03;;;;;;;19.19;52.86;102185.09;4972949;28;20501;-80
2022/06/02 10:38:39;;;;;;;15.63;10.63;;;;;;;19.77;52.28;102188.13;4971335;28;20309;-80
2022/06/02 10:41:23;;;;;;;14.48;11.20;;;;;;;20.17;48.51;102183.81;4972037;28;20031;-80
2022/06/02 10:44:07;;;;;;;15.18;11.25;;;;;;;20.39;48.93;102182.03;4977558;28;20030;-80
2022/06/02 10:47:07;;;;;;;14.25;10.68;;;;;;;20.47;46.85;102183.38;4973311;28;20034;-80
2022/06/02 10:49:59;;;;;;;13.65;10.88;;;;;;;20.03;47.98;102180.00;4995734;28;20064;-80
2022/06/02 10:52:42;;;;;;;15.07;10.50;;;;;;;19.42;50.47;102180.72;4971478;28;20057;-80
2022/06/02 10:55:30;;;;;;;16.17;12.23;;;;;;;19.03;50.71;102180.50;4970648;28;20450;-80
2022/06/02 10:58:08;;;;;;;16.25;11.80;;;;;;;18.66;51.17;102188.84;4967067;28;20177;-80
2022/06/02 11:01:09;;;;;;;16.75;11.77;;;;;;;18.44;51.28;102172.97;4971253;28;20055;-80
2022/06/02 11:03:58;;;;;;;16.60;12.98;;;;;;;18.34;52.57;102177.69;4958031;28;20096;-80
2022/06/02 11:07:14;;;;;;;18.58;11.77;;;;;;;18.68;53.85;102164.25;4968773;28;20106;-80
2022/06/02 11:09:54;;;;;;;14.90;12.00;;;;;;;19.05;49.20;102169.00;4971892;28;20027;-80
2022/06/02 11:12:35;;;;;;;13.25;10.05;;;;;;;19.43;51.21;102159.63;4967545;28;20045;-80
2022/06/02 11:15:15;;;;;;;15.20;10.32;;;;;;;19.92;50.51;102157.69;4960783;28;20037;-80
2022/06/02 11:17:59;;;;;;;15.40;10.80;;;;;;;20.05;46.06;102151.00;4974018;28;20121;-80
2022/06/02 11:20:40;;;;;;;14.10;10.32;;;;;;;20.15;47.86;102154.91;4973207;28;20198;-80
2022/06/02 11:23:45;;;;;;;11.40;9.15;;;;;;;20.09;48.67;102156.03;4972347;28;20541;-80
2022/06/02 11:26:38;;;;;;;14.52;9.75;;;;;;;20.31;47.36;102155.13;4970026;28;20460;-80
2022/06/02 11:29:09;;;;;;;14.98;10.73;;;;;;;20.33;43.96;102158.59;4971868;28;20473;-80
2022/06/02 11:31:56;;;;;;;14.00;9.40;;;;;;;20.30;45.87;102159.53;4969923;28;20062;-81
2022/06/02 11:34:59;;;;;;;12.27;9.45;;;;;;;20.30;47.73;102154.28;4984994;28;20109;-80
2022/06/02 11:37:44;;;;;;;15.05;8.43;;;;;;;20.20;44.76;102152.13;4981755;28;20031;-80
2022/06/02 11:40:21;;;;;;;18.85;7.13;;;;;;;20.13;44.23;102152.34;4971131;28;20647;-81
2022/06/02 11:43:10;;;;;;;12.88;9.10;;;;;;;20.05;44.20;102146.56;4972116;28;20058;-80
2022/06/02 11:45:57;;;;;;;12.07;9.88;;;;;;;19.97;43.83;102145.19;4971006;28;20034;-81
2022/06/02 11:48:50;;;;;;;10.82;8.65;;;;;;;19.94;45.94;102147.94;4973075;28;20034;-80
2022/06/02 11:51:49;;;;;;;11.95;8.13;;;;;;;19.84;45.72;102150.09;4971205;28;20034;-80
2022/06/02 11:54:39;;;;;;;13.73;9.70;;;;;;;19.47;45.88;102149.88;4971502;28;20053;-80
2022/06/02 11:57:26;;;;;;;10.60;8.32;;;;;;;19.64;49.75;102142.19;4965303;28;20396;-80
2022/06/02 11:59:57;;;;;;;11.88;9.30;;;;;;;19.73;45.95;102139.16;4970348;28;20047;-81
2022/06/02 12:02:38;;;;;;;12.35;9.00;;;;;;;20.00;46.39;102142.41;4968685;28;20066;-81
2022/06/02 12:05:26;;;;;;;11.27;8.10;;;;;;;20.29;45.14;102136.75;4975439;28;20035;-81
2022/06/02 12:08:28;;;;;;;10.90;7.57;;;;;;;20.64;46.95;102132.59;4970614;28;20081;-81
2022/06/02 12:11:15;;;;;;;11.43;8.50;;;;;;;20.92;45.77;102132.19;4971503;28;20704;-81
2022/06/02 12:14:04;;;;;;;9.13;7.65;;;;;;;21.03;45.69;102127.25;4971434;28;20026;-81
2022/06/02 12:16:32;;;;;;;11.95;8.93;;;;;;;21.07;43.72;102120.94;4969930;28;20101;-81
2022/06/02 12:18:57;;;;;;;14.52;10.98;;;;;;;20.80;41.40;102123.06;4976756;28;20031;-81
2022/06/02 12:21:59;;;;;;;13.40;10.60;;;;;;;20.68;45.18;102118.34;4969955;28;20034;-81
2022/06/02 12:24:49;;;;;;;13.32;10.40;;;;;;;20.47;46.11;102125.44;4969360;28;20066;-80
2022/06/02 12:27:59;;;;;;;14.05;10.75;;;;;;;20.25;45.65;102116.75;4970918;28;20031;-80
2022/06/02 12:30:41;;;;;;;13.02;10.30;;;;;;;20.09;45.54;102111.28;4948713;28;20070;-80
2022/06/02 12:33:51;;;;;;;13.45;10.43;;;;;;;20.33;45.79;102109.41;4953028;28;20432;-81
2022/06/02 12:36:38;;;;;;;14.25;10.98;;;;;;;20.41;42.59;102107.28;4949993;28;20459;-81
2022/06/02 12:39:10;;;;;;;14.23;11.02;;;;;;;20.52;43.94;102103.31;4967963;28;20030;-81
2022/06/02 12:41:56;;;;;;;12.57;10.15;;;;;;;20.53;45.23;102100.63;4969351;28;20055;-81
2022/06/02 12:44:43;;;;;;;12.82;10.13;;;;;;;20.52;43.61;102095.41;4970119;28;20157;-81
2022/06/02 12:47:27;;;;;;;14.88;10.15;;;;;;;20.34;43.48;102097.06;4972475;28;20026;-81